Time;durP1;ratioP1;P1;durP2;ratioP2;P2;SDS_P1;SDS_P2;PMS_P1;PMS_P2;Temp;Humidity;BMP_temperature;BMP_pressure;BME280_temperature;BME280_humidity;BME280_pressure;Samples;Min_cycle;Max_cycle;Signal;HPM_P1;HPM_P2
2023/02/19 00:03:26;;;;;;;11.10;5.30;;;;;;;3.16;100.00;100235.44;220359;1274;138441;-86
2023/02/19 00:09:27;;;;;;;15.40;5.70;;;;;;;3.14;100.00;100232.64;220188;1274;138337;-86
2023/02/19 00:21:30;;;;;;;13.90;5.50;;;;;;;3.17;100.00;100222.88;219936;1274;138399;-86
2023/02/19 00:27:31;;;;;;;11.00;5.20;;;;;;;3.14;100.00;100220.44;219978;1274;138123;-87
2023/02/19 00:33:33;;;;;;;13.50;5.40;;;;;;;3.15;100.00;100224.50;220385;1269;138575;-85
2023/02/19 00:39:34;;;;;;;14.90;7.00;;;;;;;3.16;100.00;100221.07;220055;1275;138304;-86
2023/02/19 00:45:36;;;;;;;13.50;5.80;;;;;;;3.14;100.00;100224.73;220395;1269;138119;-86
2023/02/19 00:51:37;;;;;;;13.10;7.10;;;;;;;3.12;100.00;100224.59;219966;1270;138422;-85
2023/02/19 00:57:38;;;;;;;14.20;6.10;;;;;;;3.11;100.00;100219.61;219960;1268;138339;-86
2023/02/19 01:03:39;;;;;;;10.40;5.00;;;;;;;3.05;100.00;100223.36;220465;1269;138183;-86
2023/02/19 01:27:48;;;;;;;15.10;5.80;;;;;;;3.01;100.00;100202.93;219925;1270;138558;-86
2023/02/19 01:39:50;;;;;;;11.90;5.30;;;;;;;2.98;100.00;100192.11;220454;1269;137903;-86
2023/02/19 01:46:04;;;;;;;14.40;5.90;;;;;;;2.96;100.00;100188.70;221402;1269;138076;-87
2023/02/19 01:52:11;;;;;;;11.40;5.70;;;;;;;2.93;100.00;100188.19;220493;1269;138135;-87
2023/02/19 01:58:12;;;;;;;17.00;6.50;;;;;;;2.91;100.00;100184.48;220021;1272;138657;-87
2023/02/19 02:04:14;;;;;;;14.50;6.30;;;;;;;2.86;100.00;100174.88;220559;1269;138045;-87
2023/02/19 02:16:17;;;;;;;14.60;7.40;;;;;;;2.86;100.00;100154.29;220531;1269;138262;-86
2023/02/19 02:28:42;;;;;;;14.00;6.10;;;;;;;2.84;100.00;100141.90;220096;1269;138867;-87
2023/02/19 02:40:56;;;;;;;14.60;6.70;;;;;;;2.86;100.00;100131.02;219430;1279;138967;-86
2023/02/19 02:47:00;;;;;;;19.20;7.20;;;;;;;2.88;100.00;100125.23;219196;1275;138871;-87
2023/02/19 03:23:12;;;;;;;18.90;8.10;;;;;;;2.89;100.00;100097.13;220536;1272;138857;-87
2023/02/19 03:35:18;;;;;;;19.90;9.30;;;;;;;2.92;100.00;100080.30;220541;1270;138310;-86
2023/02/19 03:41:26;;;;;;;16.60;8.70;;;;;;;2.94;100.00;100078.56;220047;1269;138501;-86
2023/02/19 03:53:57;;;;;;;18.80;8.70;;;;;;;2.99;100.00;100065.30;219508;1279;138147;-86
2023/02/19 04:00:13;;;;;;;14.90;7.60;;;;;;;3.00;100.00;100072.44;219067;1275;138471;-86
2023/02/19 04:06:13;;;;;;;;;;;;;;;;;;;;;
2023/02/19 04:18:20;;;;;;;17.00;8.60;;;;;;;3.03;100.00;100079.92;220091;1272;138503;-87
2023/02/19 04:30:23;;;;;;;18.70;8.50;;;;;;;3.01;100.00;100093.73;220002;1270;138714;-86
2023/02/19 04:36:24;;;;;;;14.50;8.20;;;;;;;3.00;100.00;100106.04;220021;1270;138868;-87
2023/02/19 04:42:25;;;;;;;17.40;8.70;;;;;;;3.00;100.00;100105.83;220620;1270;138127;-86
2023/02/19 04:48:26;;;;;;;17.40;8.90;;;;;;;2.98;100.00;100087.83;220038;1272;138288;-86
2023/02/19 04:54:27;;;;;;;16.80;9.20;;;;;;;2.99;100.00;100099.56;220588;1272;138106;-87
2023/02/19 05:00:28;;;;;;;19.60;9.70;;;;;;;2.97;100.00;100107.34;219894;1272;138412;-86
2023/02/19 05:06:30;;;;;;;16.10;9.10;;;;;;;2.94;100.00;100114.77;220065;1270;138682;-86
2023/02/19 05:18:35;;;;;;;19.30;9.50;;;;;;;2.91;100.00;100109.70;219927;1271;139115;-86
2023/02/19 05:24:36;;;;;;;21.20;9.70;;;;;;;2.90;100.00;100111.28;220533;1268;138073;-86
2023/02/19 05:36:40;;;;;;;;;;;;;;;;;;;;;
2023/02/19 05:42:50;;;;;;;18.90;9.20;;;;;;;2.89;100.00;100110.70;220617;1270;138267;-86
2023/02/19 05:48:51;;;;;;;20.60;9.80;;;;;;;2.88;100.00;100108.27;219981;1270;138539;-86
2023/02/19 06:00:57;;;;;;;21.10;10.10;;;;;;;2.85;100.00;100124.21;219965;1272;138924;-86
2023/02/19 06:06:58;;;;;;;17.50;8.80;;;;;;;2.83;100.00;100122.43;219838;1270;138683;-85
2023/02/19 06:12:59;;;;;;;18.80;9.50;;;;;;;2.81;100.00;100117.80;220524;1270;138099;-86
2023/02/19 06:19:22;;;;;;;16.40;8.20;;;;;;;2.80;100.00;100118.45;219923;1270;138493;-86
2023/02/19 06:25:02;;;;;;;;;;;;;;;;;;;;;
2023/02/19 06:31:06;;;;;;;16.00;9.00;;;;;;;2.80;100.00;100133.97;220045;1272;138451;-86
2023/02/19 06:37:07;;;;;;;16.60;8.00;;;;;;;2.80;100.00;100138.70;219897;1269;138806;-86
2023/02/19 06:49:10;;;;;;;20.60;9.30;;;;;;;2.79;100.00;100153.02;219962;1270;138449;-87
2023/02/19 06:55:11;;;;;;;20.00;9.60;;;;;;;2.78;100.00;100161.67;220586;1270;137939;-86
2023/02/19 07:01:12;;;;;;;17.40;8.40;;;;;;;2.80;100.00;100165.42;220074;1272;138168;-87
2023/02/19 07:13:15;;;;;;;22.70;10.40;;;;;;;2.86;100.00;100165.95;220456;1270;137951;-87
2023/02/19 07:19:16;;;;;;;21.40;8.90;;;;;;;2.88;100.00;100166.34;220015;1270;140196;-87
2023/02/19 07:31:18;;;;;;;19.70;8.60;;;;;;;2.95;100.00;100177.33;220089;1268;138371;-86
2023/02/19 07:37:20;;;;;;;18.90;8.20;;;;;;;2.99;100.00;100187.11;219973;1269;138448;-86
2023/02/19 07:55:24;;;;;;;19.60;9.20;;;;;;;3.19;100.00;100193.82;220462;1270;138367;-87
2023/02/19 08:07:26;;;;;;;20.00;8.60;;;;;;;3.38;100.00;100201.36;219792;1272;138001;-87
2023/02/19 08:13:58;;;;;;;22.70;9.00;;;;;;;3.47;100.00;100210.61;220543;1270;138829;-85
2023/02/19 08:25:30;;;;;;;17.80;7.60;;;;;;;3.66;100.00;100220.40;220666;1272;110023;-84
2023/02/19 08:37:33;;;;;;;18.00;7.90;;;;;;;3.98;100.00;100239.30;220013;1270;138455;-85
2023/02/19 08:43:26;;;;;;;;;;;;;;;;;;;;;
2023/02/19 08:49:29;;;;;;;21.10;8.70;;;;;;;4.22;100.00;100267.05;219940;1270;138552;-84
2023/02/19 08:55:30;;;;;;;17.30;7.00;;;;;;;4.30;100.00;100280.86;220552;1269;137944;-85
2023/02/19 09:01:31;;;;;;;14.50;6.30;;;;;;;4.38;100.00;100282.85;220165;1270;138726;-84
2023/02/19 09:07:30;;;;;;;;;;;;;;;;;;;;;
2023/02/19 09:13:33;;;;;;;13.70;6.10;;;;;;;4.72;100.00;100292.54;220607;1268;137890;-84
2023/02/19 09:19:26;;;;;;;;;;;;;;;;;;;;;
2023/02/19 09:25:36;;;;;;;14.30;5.30;;;;;;;5.39;100.00;100304.98;220457;1269;138063;-84
2023/02/19 09:31:35;;;;;;;;;;;;;;;;;;;;;
2023/02/19 09:37:36;;;;;;;;;;;;;;;;;;;;;
2023/02/19 10:01:42;;;;;;;11.30;3.90;;;;;;;6.43;100.00;100364.20;220075;1272;138265;-83
2023/02/19 10:13:50;;;;;;;12.60;3.20;;;;;;;6.40;99.34;100380.35;220642;1272;109798;-83
2023/02/19 10:25:53;;;;;;;9.10;2.60;;;;;;;6.29;98.20;100402.70;220470;1272;109740;-84
2023/02/19 10:31:54;;;;;;;9.80;3.00;;;;;;;6.34;98.06;100409.17;220423;1272;137625;-84
2023/02/19 10:43:56;;;;;;;10.10;2.60;;;;;;;6.70;95.09;100424.74;220637;1268;109264;-84
2023/02/19 10:49:58;;;;;;;11.90;2.60;;;;;;;6.71;93.95;100423.05;220141;1269;138169;-85
2023/02/19 10:56:01;;;;;;;10.10;2.50;;;;;;;6.64;93.52;100421.31;220682;1272;138198;-84
2023/02/19 11:02:15;;;;;;;7.80;2.10;;;;;;;6.81;93.69;100428.02;220544;1268;137947;-83
2023/02/19 11:20:24;;;;;;;6.90;1.40;;;;;;;6.94;90.79;100439.90;220130;1272;138398;-83
2023/02/19 11:26:28;;;;;;;7.20;1.60;;;;;;;7.04;89.24;100446.74;220571;1272;137958;-83
2023/02/19 11:32:30;;;;;;;3.70;1.30;;;;;;;7.01;87.40;100457.14;220673;1269;109011;-84
2023/02/19 11:38:34;;;;;;;10.20;1.50;;;;;;;7.04;87.57;100468.62;220086;1272;138005;-85
2023/02/19 11:44:38;;;;;;;5.90;1.30;;;;;;;6.91;85.76;100470.09;220494;1269;107973;-83
2023/02/19 11:50:43;;;;;;;3.50;1.20;;;;;;;6.78;86.44;100477.25;220164;1272;138765;-85
2023/02/19 11:56:48;;;;;;;7.90;1.90;;;;;;;6.77;86.33;100476.19;219994;1268;138010;-83
2023/02/19 12:02:56;;;;;;;8.50;1.90;;;;;;;6.74;86.30;100480.10;220867;1269;105151;-84
2023/02/19 12:09:03;;;;;;;9.20;2.00;;;;;;;6.70;85.80;100480.16;220020;1268;138187;-84
2023/02/19 12:14:59;;;;;;;;;;;;;;;6.61;85.48;100483.65;222061;1268;107423;-84
2023/02/19 12:21:04;;;;;;;7.00;2.10;;;;;;;6.62;84.30;100485.54;220038;1272;124517;-84
2023/02/19 12:39:20;;;;;;;8.90;1.50;;;;;;;6.55;82.75;100508.09;220182;1268;138441;-85
2023/02/19 12:45:24;;;;;;;5.90;1.90;;;;;;;6.53;82.79;100511.23;220558;1268;108913;-83
2023/02/19 12:51:25;;;;;;;9.60;2.30;;;;;;;6.52;81.47;100528.88;220202;1268;138106;-84
2023/02/19 13:09:47;;;;;;;8.00;1.70;;;;;;;6.38;80.62;100545.25;220121;1272;138064;-83
2023/02/19 13:15:57;;;;;;;6.80;1.50;;;;;;;6.28;79.98;100551.10;220797;1268;107387;-84
2023/02/19 13:34:23;;;;;;;5.10;1.40;;;;;;;6.03;78.89;100532.85;220663;1269;108324;-83
2023/02/19 13:40:33;;;;;;;5.40;1.40;;;;;;;5.98;79.35;100537.47;220138;1269;137967;-83
2023/02/19 13:46:35;;;;;;;12.20;2.20;;;;;;;5.89;79.59;100539.53;220125;1269;138506;-84
2023/02/19 13:52:39;;;;;;;8.00;1.70;;;;;;;5.86;79.55;100549.66;220620;1269;108360;-83
2023/02/19 14:11:13;;;;;;;;;;;;;;;;;;;;;
2023/02/19 14:17:17;;;;;;;6.90;1.80;;;;;;;6.09;77.80;100588.17;220115;1272;138348;-83
2023/02/19 14:23:26;;;;;;;9.20;1.50;;;;;;;6.16;77.52;100595.48;220371;1269;138483;-84
2023/02/19 14:29:19;;;;;;;;;;;;;;;;;;;;;
2023/02/19 14:35:29;;;;;;;7.60;2.10;;;;;;;6.15;77.92;100607.09;220559;1269;137915;-84
2023/02/19 14:47:33;;;;;;;6.00;1.30;;;;;;;6.11;77.03;100619.31;219980;1272;138661;-83
2023/02/19 14:59:45;;;;;;;8.30;1.20;;;;;;;5.85;75.25;100631.23;219961;1268;138156;-83
2023/02/19 15:05:48;;;;;;;24.20;8.00;;;;;;;5.81;75.44;100635.17;220205;1269;137891;-83
2023/02/19 15:17:51;;;;;;;7.10;1.60;;;;;;;5.75;74.72;100661.02;219869;1270;138149;-81
2023/02/19 15:23:52;;;;;;;7.60;1.60;;;;;;;5.70;74.03;100679.00;220565;1268;137940;-85
2023/02/19 15:29:57;;;;;;;8.10;1.50;;;;;;;5.58;73.39;100693.88;219901;1269;138168;-83
2023/02/19 15:41:59;;;;;;;7.60;1.60;;;;;;;5.40;74.18;100700.95;220586;1268;137902;-84
2023/02/19 15:48:01;;;;;;;6.20;1.60;;;;;;;5.29;74.40;100698.24;220102;1269;137913;-84
2023/02/19 16:12:29;;;;;;;8.00;2.80;;;;;;;4.63;76.61;100727.46;220623;1269;137985;-83
2023/02/19 16:18:30;;;;;;;10.80;3.30;;;;;;;4.44;76.91;100738.95;220089;1268;137924;-83
2023/02/19 16:24:32;;;;;;;11.40;3.80;;;;;;;4.26;77.72;100745.52;220465;1268;138078;-83
2023/02/19 16:30:34;;;;;;;8.10;3.00;;;;;;;4.07;77.68;100748.48;220077;1268;138331;-83
2023/02/19 16:36:34;;;;;;;11.20;3.10;;;;;;;3.87;78.02;100765.41;219984;1269;138876;-83
2023/02/19 16:42:52;;;;;;;10.50;2.70;;;;;;;3.70;78.49;100778.90;220285;1268;138147;-83
2023/02/19 16:48:52;;;;;;;8.60;3.70;;;;;;;3.54;78.94;100800.59;219816;1269;138580;-84
2023/02/19 16:54:54;;;;;;;9.60;3.00;;;;;;;3.41;79.45;100822.34;220311;1268;138226;-84
2023/02/19 17:00:58;;;;;;;11.80;4.30;;;;;;;3.26;80.04;100822.41;219882;1268;138305;-83
2023/02/19 17:07:24;;;;;;;12.60;3.50;;;;;;;3.14;80.62;100838.54;219718;1270;138381;-83
2023/02/19 17:13:12;;;;;;;12.50;3.90;;;;;;;2.99;81.21;100849.02;216193;1269;5367471;-83
2023/02/19 17:19:13;;;;;;;9.60;3.60;;;;;;;2.87;81.83;100851.08;219885;1268;138757;-83
2023/02/19 17:31:16;;;;;;;;;;;;;;;;;;;;;
2023/02/19 17:37:20;;;;;;;12.50;4.80;;;;;;;2.51;83.70;100868.27;219945;1269;138980;-83
2023/02/19 17:43:22;;;;;;;15.70;6.30;;;;;;;2.41;85.15;100880.39;220386;1269;138156;-83
2023/02/19 17:55:24;;;;;;;20.30;8.20;;;;;;;2.15;85.78;100897.20;220192;1269;109670;-83
2023/02/19 18:07:26;;;;;;;18.90;7.50;;;;;;;1.88;86.96;100912.95;219918;1268;138947;-92
2023/02/19 18:13:27;;;;;;;19.60;7.40;;;;;;;1.77;87.27;100913.54;220421;1269;138284;-85
2023/02/19 18:19:27;;;;;;;;;;;;;;;;;;;;;
2023/02/19 18:37:32;;;;;;;15.00;6.20;;;;;;;1.24;88.53;100941.18;219707;1269;138478;-89
2023/02/19 18:43:33;;;;;;;21.90;8.90;;;;;;;1.15;88.66;100942.63;220419;1269;138144;-86
2023/02/19 18:49:34;;;;;;;28.80;12.10;;;;;;;1.05;88.72;100939.41;219907;1269;138243;-88
2023/02/19 18:55:35;;;;;;;33.90;14.00;;;;;;;0.95;88.86;100948.67;220237;1268;138390;-90
2023/02/19 19:07:37;;;;;;;32.60;14.40;;;;;;;0.77;88.99;100947.77;219912;1269;141296;-87
2023/02/19 19:13:39;;;;;;;24.30;10.20;;;;;;;0.67;89.68;100955.22;220454;1269;138694;-88
2023/02/19 19:19:40;;;;;;;17.80;7.60;;;;;;;0.57;89.80;100958.96;220220;1269;138556;-93
2023/02/19 19:37:50;;;;;;;22.50;8.60;;;;;;;0.32;91.10;100956.77;219755;1275;138650;-91
2023/02/19 19:44:05;;;;;;;;;;;;;;;;;;;;;
2023/02/19 19:49:59;;;;;;;25.90;10.10;;;;;;;0.20;92.11;100966.15;220391;1272;138502;-92
2023/02/19 19:56:00;;;;;;;37.20;13.40;;;;;;;0.14;92.32;100959.92;220824;1272;138379;-87
2023/02/19 20:14:04;;;;;;;35.70;15.20;;;;;;;0.04;93.86;100963.92;220420;1269;138363;-86
2023/02/19 20:32:08;;;;;;;21.50;8.10;;;;;;;-0.07;94.65;100977.56;220208;1269;138536;-87
2023/02/19 20:38:04;;;;;;;23.10;9.50;;;;;;;-0.06;94.72;100983.40;219719;1269;138865;-86
2023/02/19 20:44:05;;;;;;;18.40;7.30;;;;;;;-0.05;95.11;100991.61;220416;1269;138387;-87
2023/02/19 20:56:09;;;;;;;23.80;9.90;;;;;;;-0.04;95.48;101000.70;220526;1272;138994;-87
2023/02/19 21:08:12;;;;;;;14.00;4.60;;;;;;;-0.00;95.66;101014.48;219805;1272;138512;-86
2023/02/19 21:14:12;;;;;;;13.00;4.30;;;;;;;0.03;95.58;101012.21;220360;1269;138604;-86
2023/02/19 21:20:13;;;;;;;14.10;5.10;;;;;;;0.04;95.95;101023.72;219906;1269;138363;-86
2023/02/19 21:26:14;;;;;;;16.10;5.10;;;;;;;0.04;95.71;101034.81;220457;1270;138264;-87
2023/02/19 21:32:15;;;;;;;11.00;3.80;;;;;;;0.08;95.81;101036.77;221574;1269;138295;-87
2023/02/19 21:38:16;;;;;;;14.90;4.10;;;;;;;0.12;96.27;101034.55;219945;1270;139093;-87
2023/02/19 21:44:18;;;;;;;12.40;3.60;;;;;;;0.13;96.04;101031.77;220200;1270;138391;-87
2023/02/19 21:50:15;;;;;;;10.80;3.60;;;;;;;0.16;95.86;101038.38;219852;1269;138743;-87
2023/02/19 21:56:09;;;;;;;;;;;;;;;;;;;;;
2023/02/19 22:02:12;;;;;;;9.40;2.70;;;;;;;0.24;95.87;101032.74;220308;1272;138262;-88
2023/02/19 22:08:14;;;;;;;10.60;3.10;;;;;;;0.24;95.87;101029.86;220008;1269;138192;-87
2023/02/19 22:14:14;;;;;;;10.50;3.00;;;;;;;0.26;95.55;101019.05;220436;1269;138354;-87
2023/02/19 22:20:16;;;;;;;9.10;3.20;;;;;;;0.28;95.13;101016.76;219935;1269;138299;-87
2023/02/19 22:26:16;;;;;;;12.10;2.70;;;;;;;0.30;95.05;101016.78;220451;1272;138063;-87
2023/02/19 22:32:17;;;;;;;11.30;3.30;;;;;;;0.33;94.92;101025.63;223566;1269;138205;-89
2023/02/19 22:44:20;;;;;;;9.60;2.90;;;;;;;0.34;94.46;101008.27;220357;1272;138364;-88
2023/02/19 22:50:21;;;;;;;7.90;2.40;;;;;;;0.31;94.66;101010.54;219863;1270;138402;-88
2023/02/19 22:56:22;;;;;;;11.00;3.30;;;;;;;0.27;94.63;101012.86;220017;1272;138270;-88
2023/02/19 23:02:23;;;;;;;11.10;2.80;;;;;;;0.25;94.63;101014.25;220393;1272;138683;-88
2023/02/19 23:08:25;;;;;;;11.30;3.00;;;;;;;0.24;94.79;101012.69;219819;1272;138490;-84
2023/02/19 23:14:27;;;;;;;10.00;2.60;;;;;;;0.18;94.60;101006.83;220561;1269;137153;-85
2023/02/19 23:20:27;;;;;;;11.00;2.60;;;;;;;0.15;94.46;101014.20;219985;1272;138402;-83
2023/02/19 23:26:29;;;;;;;11.40;3.30;;;;;;;0.13;94.69;101009.79;220003;1269;138941;-83
2023/02/19 23:32:30;;;;;;;11.60;2.90;;;;;;;0.10;94.30;101014.65;220628;1272;138280;-83
2023/02/19 23:38:23;;;;;;;;;;;;;;;;;;;;;
2023/02/19 23:44:25;;;;;;;10.20;3.00;;;;;;;0.05;94.67;100992.54;220485;1272;138243;-84
2023/02/19 23:50:26;;;;;;;12.20;3.20;;;;;;;0.05;94.49;100976.14;220072;1272;138741;-85
2023/02/19 23:56:28;;;;;;;9.30;2.90;;;;;;;0.06;95.10;100964.77;219909;1272;138503;-84
